createdAt,value
2023-03-29T00:01:35.462Z,3.90
2023-03-29T00:04:27.728Z,3.90
2023-03-29T00:07:15.876Z,4.00
2023-03-29T00:10:06.785Z,3.90
2023-03-29T00:12:55.054Z,3.90
2023-03-29T00:15:44.670Z,3.90
2023-03-29T00:18:33.018Z,3.90
2023-03-29T00:21:21.117Z,3.90
2023-03-29T00:24:09.192Z,3.90
2023-03-29T00:26:57.233Z,3.90
2023-03-29T00:29:45.427Z,4.00
2023-03-29T00:32:35.407Z,4.00
2023-03-29T00:35:23.712Z,4.00
2023-03-29T00:38:11.766Z,4.00
2023-03-29T00:41:00.609Z,4.10
2023-03-29T00:43:55.666Z,4.10
2023-03-29T00:46:44.180Z,4.10
2023-03-29T00:49:35.897Z,4.10
2023-03-29T00:52:24.510Z,4.20
2023-03-29T00:55:14.732Z,4.20
2023-03-29T00:58:04.470Z,4.20
2023-03-29T01:00:55.525Z,4.20
2023-03-29T01:03:47.203Z,4.20
2023-03-29T01:06:39.306Z,4.20
2023-03-29T01:09:30.381Z,4.30
2023-03-29T01:12:20.829Z,4.30
2023-03-29T01:15:11.112Z,4.20
2023-03-29T01:18:02.043Z,4.30
2023-03-29T01:21:03.042Z,4.30
2023-03-29T01:24:06.580Z,4.30
2023-03-29T01:26:58.479Z,4.30
2023-03-29T01:29:50.076Z,4.30
2023-03-29T01:32:40.139Z,4.30
2023-03-29T01:35:32.565Z,4.30
2023-03-29T01:38:23.365Z,4.30
2023-03-29T01:41:12.044Z,4.30
2023-03-29T01:44:02.539Z,4.30
2023-03-29T01:46:54.184Z,4.30
2023-03-29T01:49:45.343Z,4.30
2023-03-29T01:52:36.151Z,4.30
2023-03-29T01:55:26.542Z,4.20
2023-03-29T01:58:16.478Z,4.20
2023-03-29T02:01:05.825Z,4.20
2023-03-29T02:03:57.181Z,4.30
2023-03-29T02:06:46.006Z,4.20
2023-03-29T02:09:34.971Z,4.20
2023-03-29T02:12:23.081Z,4.10
2023-03-29T02:15:13.385Z,4.10
2023-03-29T02:18:01.600Z,4.10
2023-03-29T02:20:51.456Z,4.10
2023-03-29T02:23:41.505Z,4.10
2023-03-29T02:26:29.686Z,4.10
2023-03-29T02:29:18.022Z,4.10
2023-03-29T02:32:09.698Z,4.10
2023-03-29T02:34:59.807Z,4.10
2023-03-29T02:37:51.435Z,4.10
2023-03-29T02:40:40.112Z,4.10
2023-03-29T02:43:28.696Z,4.10
2023-03-29T02:46:17.743Z,4.10
2023-03-29T02:49:06.653Z,4.10
2023-03-29T02:51:56.776Z,4.10
2023-03-29T02:54:47.402Z,4.10
2023-03-29T02:57:38.220Z,4.10
2023-03-29T03:00:26.329Z,4.10
2023-03-29T03:03:15.607Z,4.10
2023-03-29T03:06:04.151Z,4.00
2023-03-29T03:08:52.708Z,3.90
2023-03-29T03:11:42.249Z,3.90
2023-03-29T03:14:30.304Z,3.90
2023-03-29T03:17:19.308Z,3.90
2023-03-29T03:20:10.688Z,3.90
2023-03-29T03:22:58.758Z,3.90
2023-03-29T03:25:49.110Z,3.80
2023-03-29T03:28:38.908Z,3.80
2023-03-29T03:31:28.392Z,3.80
2023-03-29T03:34:16.775Z,3.70
2023-03-29T03:37:04.808Z,3.70
2023-03-29T03:39:53.611Z,3.70
2023-03-29T03:42:42.076Z,3.60
2023-03-29T03:45:31.438Z,3.70
2023-03-29T03:48:19.516Z,3.70
2023-03-29T03:51:07.596Z,3.70
2023-03-29T03:53:55.620Z,3.70
2023-03-29T03:56:44.531Z,3.70
2023-03-29T03:59:32.640Z,3.60
2023-03-29T04:02:22.071Z,3.60
2023-03-29T04:05:10.155Z,3.60
2023-03-29T04:07:58.180Z,3.60
2023-03-29T04:10:52.493Z,3.60
2023-03-29T04:13:40.756Z,3.70
2023-03-29T04:16:29.121Z,3.70
2023-03-29T04:19:18.771Z,3.70
2023-03-29T04:22:06.762Z,3.70
2023-03-29T04:24:55.169Z,3.70
2023-03-29T04:27:43.181Z,3.70
2023-03-29T04:30:31.276Z,3.80
2023-03-29T04:33:19.465Z,3.70
2023-03-29T04:36:09.451Z,3.80
2023-03-29T04:38:58.615Z,3.80
2023-03-29T04:41:47.307Z,3.80
2023-03-29T04:44:35.682Z,3.90
2023-03-29T04:47:24.112Z,3.90
2023-03-29T04:50:12.492Z,4.00
2023-03-29T04:53:02.393Z,4.10
2023-03-29T04:55:50.472Z,4.10
2023-03-29T04:58:38.857Z,4.10
2023-03-29T05:01:26.889Z,4.10
2023-03-29T05:04:15.051Z,4.00
2023-03-29T05:07:04.503Z,4.10
2023-03-29T05:09:53.886Z,4.10
2023-03-29T05:12:41.933Z,4.10
2023-03-29T05:15:29.989Z,4.10
2023-03-29T05:18:18.022Z,4.10
2023-03-29T05:21:06.391Z,4.10
2023-03-29T05:23:54.619Z,4.20
2023-03-29T05:26:44.791Z,4.20
2023-03-29T05:29:33.710Z,4.20
2023-03-29T05:32:22.088Z,4.20
2023-03-29T05:35:10.725Z,4.20
2023-03-29T05:38:00.715Z,4.30
2023-03-29T05:40:49.946Z,4.30
2023-03-29T05:43:39.330Z,4.30
2023-03-29T05:46:27.395Z,4.30
2023-03-29T05:49:15.425Z,4.30
2023-03-29T05:52:03.999Z,4.40
2023-03-29T05:54:52.022Z,4.40
2023-03-29T05:57:40.036Z,4.50
2023-03-29T06:00:31.831Z,4.50
2023-03-29T06:03:22.111Z,4.60
2023-03-29T06:06:10.588Z,4.70
2023-03-29T06:08:59.146Z,4.70
2023-03-29T06:11:47.608Z,4.80
2023-03-29T06:14:36.466Z,4.90
2023-03-29T06:17:25.852Z,5.00
2023-03-29T06:20:14.351Z,5.10
2023-03-29T06:23:03.075Z,5.10
2023-03-29T06:25:51.625Z,5.20
2023-03-29T06:28:39.852Z,5.30
2023-03-29T06:31:27.950Z,5.40
2023-03-29T06:34:17.706Z,5.40
2023-03-29T06:37:05.889Z,5.50
2023-03-29T06:39:53.925Z,5.60
2023-03-29T06:42:41.964Z,5.60
2023-03-29T06:45:31.759Z,5.70
2023-03-29T06:48:19.765Z,5.80
2023-03-29T06:51:09.242Z,5.80
2023-03-29T06:53:57.262Z,5.90
2023-03-29T06:56:46.272Z,6.00
2023-03-29T06:59:35.048Z,6.00
2023-03-29T07:02:23.118Z,6.10
2023-03-29T07:05:11.906Z,6.10
2023-03-29T07:08:11.346Z,6.20
2023-03-29T07:10:59.957Z,6.30
2023-03-29T07:13:49.067Z,6.30
2023-03-29T07:16:37.588Z,6.30
2023-03-29T07:19:27.399Z,6.30
2023-03-29T07:22:15.414Z,6.30
2023-03-29T07:25:05.794Z,6.30
2023-03-29T07:27:54.527Z,6.40
2023-03-29T07:30:42.623Z,6.50
2023-03-29T07:33:30.758Z,6.60
2023-03-29T07:36:19.678Z,6.70
2023-03-29T07:39:08.819Z,6.80
2023-03-29T07:41:59.055Z,6.80
2023-03-29T07:44:48.460Z,6.90
2023-03-29T07:47:36.530Z,6.90
2023-03-29T07:50:24.906Z,7.00
2023-03-29T07:53:13.084Z,7.10
2023-03-29T07:56:01.678Z,7.20
2023-03-29T07:58:51.736Z,7.30
2023-03-29T08:01:40.919Z,7.30
2023-03-29T08:04:29.001Z,7.40
2023-03-29T08:07:19.136Z,7.60
2023-03-29T08:10:09.108Z,7.60
2023-03-29T08:12:58.055Z,7.70
2023-03-29T08:15:48.684Z,7.70
2023-03-29T08:18:36.840Z,7.80
2023-03-29T08:21:25.122Z,7.80
2023-03-29T08:24:13.114Z,7.90
2023-03-29T08:27:01.476Z,8.00
2023-03-29T08:29:49.496Z,8.10
2023-03-29T08:32:39.177Z,8.10
2023-03-29T08:35:27.677Z,8.00
2023-03-29T08:38:16.267Z,8.10
2023-03-29T08:41:10.140Z,8.10
2023-03-29T08:44:04.229Z,8.20
2023-03-29T08:46:54.654Z,8.20
2023-03-29T08:49:45.563Z,8.30
2023-03-29T08:52:35.779Z,8.50
2023-03-29T08:55:27.933Z,8.60
2023-03-29T08:58:19.013Z,8.70
2023-03-29T09:01:08.753Z,8.70
2023-03-29T09:04:01.335Z,8.70
2023-03-29T09:06:50.809Z,8.70
2023-03-29T09:09:39.010Z,8.80
2023-03-29T09:12:34.099Z,8.90
2023-03-29T09:15:25.798Z,9.00
2023-03-29T09:18:19.224Z,9.00
2023-03-29T09:21:09.596Z,9.20
2023-03-29T09:24:13.623Z,9.40
2023-03-29T09:27:05.291Z,9.50
2023-03-29T09:30:04.616Z,9.70
2023-03-29T09:32:53.803Z,9.80
2023-03-29T09:35:42.991Z,9.80
2023-03-29T09:38:32.081Z,9.90
2023-03-29T09:41:24.645Z,9.90
2023-03-29T09:44:27.723Z,10.10
2023-03-29T09:47:20.722Z,10.10
2023-03-29T09:50:27.326Z,10.30
2023-03-29T09:53:19.452Z,10.50
2023-03-29T09:56:08.488Z,10.50
2023-03-29T09:58:57.833Z,10.60
2023-03-29T10:01:46.556Z,10.60
2023-03-29T10:04:34.647Z,10.70
2023-03-29T10:07:22.783Z,10.70
2023-03-29T10:10:11.501Z,10.80
2023-03-29T10:13:00.744Z,10.90
2023-03-29T10:15:58.731Z,11.00
2023-03-29T10:18:50.191Z,11.20
2023-03-29T10:21:38.283Z,11.30
2023-03-29T10:24:28.110Z,11.40
2023-03-29T10:27:19.205Z,11.40
2023-03-29T10:30:09.682Z,11.50
2023-03-29T10:33:00.233Z,11.60
2023-03-29T10:35:49.241Z,11.70
2023-03-29T10:38:38.108Z,11.80
2023-03-29T10:41:27.161Z,11.80
2023-03-29T10:44:32.332Z,11.80
2023-03-29T10:47:21.516Z,11.80
2023-03-29T10:50:16.098Z,11.70
2023-03-29T10:53:06.174Z,11.80
2023-03-29T10:56:02.709Z,11.80
2023-03-29T10:58:57.766Z,11.80
2023-03-29T11:01:50.151Z,12.00
2023-03-29T11:04:43.708Z,12.30
2023-03-29T11:07:33.829Z,12.60
2023-03-29T11:10:28.418Z,12.60
2023-03-29T11:13:22.193Z,12.70
2023-03-29T11:16:12.842Z,12.80
2023-03-29T11:19:24.400Z,12.90
2023-03-29T11:22:15.334Z,13.20
2023-03-29T11:25:17.688Z,13.30
2023-03-29T11:28:09.612Z,13.60
2023-03-29T11:31:02.254Z,13.70
2023-03-29T11:33:54.489Z,13.80
2023-03-29T11:36:50.441Z,14.00
2023-03-29T11:39:43.081Z,13.90
2023-03-29T11:42:34.232Z,13.70
2023-03-29T11:45:26.352Z,13.70
2023-03-29T11:48:16.589Z,13.80
2023-03-29T11:51:06.856Z,13.70
2023-03-29T11:53:58.071Z,13.70
2023-03-29T11:56:48.870Z,13.80
2023-03-29T11:59:41.669Z,13.90
2023-03-29T12:02:33.593Z,14.00
2023-03-29T12:05:23.442Z,14.00
2023-03-29T12:08:14.414Z,13.90
2023-03-29T12:11:05.335Z,13.80
2023-03-29T12:13:55.536Z,13.70
2023-03-29T12:16:46.978Z,13.80
2023-03-29T12:19:40.383Z,13.80
2023-03-29T12:22:30.992Z,13.70
2023-03-29T12:25:23.356Z,13.60
2023-03-29T12:28:24.146Z,13.60
2023-03-29T12:31:16.240Z,13.50
2023-03-29T12:34:15.902Z,13.40
2023-03-29T12:37:24.809Z,13.40
2023-03-29T12:40:14.959Z,13.40
2023-03-29T12:43:05.989Z,13.50
2023-03-29T12:45:56.025Z,13.70
2023-03-29T12:48:45.376Z,13.90
2023-03-29T12:51:35.615Z,14.10
2023-03-29T12:54:27.508Z,14.30
2023-03-29T12:57:20.425Z,14.40
2023-03-29T13:00:11.989Z,14.40
2023-03-29T13:03:01.572Z,14.50
2023-03-29T13:05:59.262Z,14.50
2023-03-29T13:08:58.304Z,14.70
2023-03-29T13:11:52.549Z,14.80
2023-03-29T13:14:43.085Z,14.80
2023-03-29T13:17:35.282Z,15.10
2023-03-29T13:20:34.331Z,15.20
2023-03-29T13:23:27.784Z,15.60
2023-03-29T13:26:27.116Z,16.10
2023-03-29T13:29:25.375Z,16.30
2023-03-29T13:32:20.156Z,16.50
2023-03-29T13:35:13.910Z,16.50
2023-03-29T13:38:06.960Z,16.40
2023-03-29T13:40:59.689Z,16.10
2023-03-29T13:43:52.962Z,15.80
2023-03-29T13:46:41.972Z,15.60
2023-03-29T13:49:32.816Z,15.30
2023-03-29T13:52:22.667Z,15.20
2023-03-29T13:55:14.582Z,15.00
2023-03-29T13:58:04.848Z,14.80
2023-03-29T14:00:56.699Z,14.80
2023-03-29T14:03:46.201Z,14.80
2023-03-29T14:06:36.543Z,14.70
2023-03-29T14:09:26.256Z,14.70
2023-03-29T14:12:15.652Z,14.80
2023-03-29T14:15:05.718Z,14.60
2023-03-29T14:17:57.180Z,14.60
2023-03-29T14:20:49.095Z,14.70
2023-03-29T14:23:38.123Z,14.70
2023-03-29T14:26:30.713Z,14.90
2023-03-29T14:29:18.748Z,15.00
2023-03-29T14:32:11.104Z,15.20
2023-03-29T14:35:01.854Z,15.40
2023-03-29T14:37:50.665Z,15.50
2023-03-29T14:40:38.777Z,15.60
2023-03-29T14:43:30.341Z,15.50
2023-03-29T14:46:19.756Z,15.40
2023-03-29T14:49:08.240Z,15.40
2023-03-29T14:51:58.086Z,15.60
2023-03-29T14:54:47.401Z,15.70
2023-03-29T14:57:37.808Z,15.60
2023-03-29T15:00:30.635Z,15.40
2023-03-29T15:03:19.229Z,15.30
2023-03-29T15:06:07.651Z,15.30
2023-03-29T15:09:05.373Z,15.10
2023-03-29T15:11:54.524Z,14.90
2023-03-29T15:14:42.618Z,14.90
2023-03-29T15:17:46.786Z,14.80
2023-03-29T15:20:40.395Z,14.80
2023-03-29T15:23:35.570Z,14.70
2023-03-29T15:26:26.907Z,14.60
2023-03-29T15:29:17.259Z,14.60
2023-03-29T15:32:05.679Z,14.50
2023-03-29T15:34:59.486Z,14.40
2023-03-29T15:37:50.620Z,14.40
2023-03-29T15:40:38.893Z,14.30
2023-03-29T15:43:28.457Z,14.20
2023-03-29T15:46:16.642Z,14.10
2023-03-29T15:49:05.033Z,14.10
2023-03-29T15:51:54.008Z,14.10
2023-03-29T15:54:42.407Z,14.00
2023-03-29T15:57:30.593Z,14.00
2023-03-29T16:00:22.390Z,13.90
2023-03-29T16:03:12.583Z,13.80
2023-03-29T16:06:01.352Z,13.70
2023-03-29T16:08:49.586Z,13.50
2023-03-29T16:11:37.698Z,13.50
2023-03-29T16:14:27.319Z,13.50
2023-03-29T16:17:16.853Z,13.40
2023-03-29T16:20:06.045Z,13.40
2023-03-29T16:22:55.200Z,13.20
2023-03-29T16:25:43.401Z,13.00
2023-03-29T16:28:31.609Z,12.90
2023-03-29T16:31:20.443Z,12.70
2023-03-29T16:34:10.544Z,12.60
2023-03-29T16:36:58.562Z,12.50
2023-03-29T16:39:49.525Z,12.40
2023-03-29T16:42:37.929Z,12.20
2023-03-29T16:45:25.976Z,12.10
2023-03-29T16:48:14.146Z,12.00
2023-03-29T16:51:03.584Z,11.90
2023-03-29T16:53:52.391Z,11.90
2023-03-29T16:56:40.789Z,11.80
2023-03-29T16:59:28.856Z,11.70
2023-03-29T17:02:16.879Z,11.70
2023-03-29T17:05:06.103Z,11.70
2023-03-29T17:07:56.248Z,11.70
2023-03-29T17:10:44.290Z,11.70
2023-03-29T17:13:32.434Z,11.70
2023-03-29T17:16:20.538Z,11.70
2023-03-29T17:19:08.633Z,11.80
2023-03-29T17:21:56.794Z,11.80
2023-03-29T17:24:46.394Z,11.80
2023-03-29T17:27:34.825Z,11.70
2023-03-29T17:30:22.893Z,11.70
2023-03-29T17:33:11.220Z,11.70
2023-03-29T17:35:59.338Z,11.70
2023-03-29T17:38:48.871Z,11.70
2023-03-29T17:41:38.261Z,11.70
2023-03-29T17:44:26.932Z,11.80
2023-03-29T17:47:14.994Z,11.80
2023-03-29T17:50:03.003Z,11.70
2023-03-29T17:52:51.062Z,11.70
2023-03-29T17:55:39.901Z,11.60
2023-03-29T17:58:29.288Z,11.60
2023-03-29T18:01:19.450Z,11.60
2023-03-29T18:04:07.561Z,11.60
2023-03-29T18:06:55.951Z,11.70
2023-03-29T18:09:43.971Z,11.70
2023-03-29T18:12:32.077Z,11.70
2023-03-29T18:15:21.780Z,11.70
2023-03-29T18:18:09.960Z,11.70
2023-03-29T18:20:58.452Z,11.60
2023-03-29T18:23:47.297Z,11.60
2023-03-29T18:26:35.337Z,11.60
2023-03-29T18:29:23.912Z,11.50
2023-03-29T18:32:14.542Z,11.50
2023-03-29T18:35:03.196Z,11.50
2023-03-29T18:37:51.545Z,11.50
2023-03-29T18:40:39.619Z,11.50
2023-03-29T18:43:27.647Z,11.50
2023-03-29T18:46:15.796Z,11.50
2023-03-29T18:49:05.204Z,11.50
2023-03-29T18:51:54.391Z,11.50
2023-03-29T18:54:42.543Z,11.40
2023-03-29T18:57:30.782Z,11.50
2023-03-29T19:00:19.087Z,11.40
2023-03-29T19:03:07.572Z,11.50
2023-03-29T19:05:57.082Z,11.50
2023-03-29T19:08:45.120Z,11.50
2023-03-29T19:11:33.503Z,11.50
2023-03-29T19:14:24.190Z,11.50
2023-03-29T19:17:12.241Z,11.50
2023-03-29T19:20:00.248Z,11.50
2023-03-29T19:22:49.699Z,11.50
2023-03-29T19:25:37.938Z,11.50
2023-03-29T19:28:26.400Z,11.50
2023-03-29T19:31:14.476Z,11.50
2023-03-29T19:34:02.529Z,11.50
2023-03-29T19:36:50.878Z,11.40
2023-03-29T19:39:41.390Z,11.50
2023-03-29T19:42:29.456Z,11.40
2023-03-29T19:45:17.532Z,11.40
2023-03-29T19:48:05.962Z,11.40
2023-03-29T19:50:54.391Z,11.40
2023-03-29T19:53:42.521Z,11.40
2023-03-29T19:56:33.125Z,11.40
2023-03-29T19:59:21.117Z,11.40
2023-03-29T20:02:10.880Z,11.40
2023-03-29T20:04:58.999Z,11.40
2023-03-29T20:07:47.033Z,11.40
2023-03-29T20:10:35.214Z,11.40
2023-03-29T20:13:37.729Z,11.40
2023-03-29T20:16:27.166Z,11.40
2023-03-29T20:19:17.778Z,11.30
2023-03-29T20:22:06.026Z,11.20
2023-03-29T20:24:54.054Z,11.10
2023-03-29T20:27:42.717Z,11.10
2023-03-29T20:30:32.100Z,10.90
2023-03-29T20:33:20.236Z,10.90
2023-03-29T20:36:09.058Z,10.90
2023-03-29T20:38:58.728Z,10.80
2023-03-29T20:41:47.699Z,10.80
2023-03-29T20:44:35.901Z,10.70
2023-03-29T20:47:27.540Z,10.70
2023-03-29T20:50:18.560Z,10.70
2023-03-29T20:53:07.530Z,10.60
2023-03-29T20:55:55.574Z,10.70
2023-03-29T20:58:43.769Z,10.60
2023-03-29T21:01:31.910Z,10.70
2023-03-29T21:04:21.363Z,10.70
2023-03-29T21:07:09.730Z,10.70
2023-03-29T21:09:58.173Z,10.60
2023-03-29T21:12:46.473Z,10.60
2023-03-29T21:15:34.516Z,10.60
2023-03-29T21:18:23.409Z,10.60
2023-03-29T21:21:13.120Z,10.50
2023-03-29T21:24:01.170Z,10.50
2023-03-29T21:26:49.184Z,10.50
2023-03-29T21:29:37.240Z,10.60
2023-03-29T21:32:25.297Z,10.60
2023-03-29T21:35:13.428Z,10.60
2023-03-29T21:38:02.876Z,10.60
2023-03-29T21:40:51.712Z,10.60
2023-03-29T21:43:39.740Z,10.60
2023-03-29T21:46:27.822Z,10.60
2023-03-29T21:49:16.239Z,10.60
2023-03-29T21:52:04.267Z,10.50
2023-03-29T21:54:53.633Z,10.60
2023-03-29T21:57:41.672Z,10.60
2023-03-29T22:00:29.721Z,10.60
2023-03-29T22:03:17.996Z,10.60
2023-03-29T22:06:08.513Z,10.50
2023-03-29T22:08:56.639Z,10.50
2023-03-29T22:11:45.986Z,10.50
2023-03-29T22:14:35.210Z,10.50
2023-03-29T22:17:26.720Z,10.60
2023-03-29T22:20:14.863Z,10.60
2023-03-29T22:23:03.277Z,10.70
2023-03-29T22:25:51.506Z,10.70
2023-03-29T22:28:41.712Z,10.70
2023-03-29T22:31:30.402Z,10.70
2023-03-29T22:34:18.470Z,10.70
2023-03-29T22:37:06.512Z,10.70
2023-03-29T22:39:54.534Z,10.70
2023-03-29T22:42:42.570Z,10.60
2023-03-29T22:45:32.269Z,10.60
2023-03-29T22:48:20.264Z,10.60
2023-03-29T22:51:08.353Z,10.60
2023-03-29T22:53:56.620Z,10.60
2023-03-29T22:56:44.657Z,10.50
2023-03-29T22:59:32.687Z,10.50
2023-03-29T23:02:22.100Z,10.50
2023-03-29T23:05:10.285Z,10.50
2023-03-29T23:07:58.313Z,10.50
2023-03-29T23:10:46.982Z,10.50
2023-03-29T23:13:35.186Z,10.40
2023-03-29T23:16:23.653Z,10.40
2023-03-29T23:19:13.037Z,10.40
2023-03-29T23:22:01.140Z,10.40
2023-03-29T23:24:49.158Z,10.30
2023-03-29T23:27:37.621Z,10.30
2023-03-29T23:30:26.870Z,10.30
2023-03-29T23:33:14.915Z,10.30
2023-03-29T23:36:05.353Z,10.20
2023-03-29T23:38:53.561Z,10.20
2023-03-29T23:41:41.628Z,10.10
2023-03-29T23:44:30.503Z,10.10
2023-03-29T23:47:18.528Z,10.10
2023-03-29T23:50:07.379Z,10.20
2023-03-29T23:52:56.752Z,10.20
2023-03-29T23:55:45.540Z,10.20
2023-03-29T23:58:34.438Z,10.20
